Waterford, Ohio
Current Conditions -  °F | °C
As of 9:53 PM on Tuesday 25 Nov 2014 (Local Time) from KPKB Reporting Station
Clear Clear  
Wind Chill: 37°   Ceiling: Unl
Heat Index: 37°   Visibility: 10mi
Dew Point: 26°   Wind: 3mph
Humidity: 65%   Direction: 40°NE
Pressure: 30.2"   Gusts: NA
Location:  39.54°N, 81.64°W
Report Text: KPKB 260253Z AUTO 04003KT 10SM CLR 03/M03 A3020 RMK AO2 SLP232 T00281033 53012
Loading
Personal Weather Stations






























Interactive Weather Map New forecast layout! Learn more

10-Day Weather Forecast

Advertisements
Track Severe Weather on mobile